createdAt,value
2018-08-25T00:00:22.398Z,94559.67
2018-08-25T00:02:51.217Z,94559.41
2018-08-25T00:05:19.965Z,94560.50
2018-08-25T00:07:48.763Z,94559.94
2018-08-25T00:10:17.608Z,94558.63
2018-08-25T00:12:46.379Z,94557.56
2018-08-25T00:15:15.190Z,94555.70
2018-08-25T00:17:43.954Z,94555.69
2018-08-25T00:20:12.738Z,94557.31
2018-08-25T00:22:41.498Z,94555.42
2018-08-25T00:25:10.293Z,94553.30
2018-08-25T00:27:39.079Z,94551.97
2018-08-25T00:30:13.123Z,94549.05
2018-08-25T00:32:41.959Z,94553.58
2018-08-25T00:35:10.760Z,94555.71
2018-08-25T00:37:39.551Z,94555.73
2018-08-25T00:40:08.384Z,94550.66
2018-08-25T00:42:37.608Z,94557.06
2018-08-25T00:45:06.467Z,94553.88
2018-08-25T00:47:35.295Z,94558.67
2018-08-25T00:50:04.278Z,94555.47
2018-08-25T00:52:33.048Z,94562.38
2018-08-25T00:55:01.820Z,94570.64
2018-08-25T00:57:30.627Z,94568.25
2018-08-25T00:59:59.579Z,94567.18
2018-08-25T01:02:28.388Z,94565.84
2018-08-25T01:04:57.278Z,94568.77
2018-08-25T01:07:26.125Z,94569.31
2018-08-25T01:09:54.940Z,94573.86
2018-08-25T01:12:23.714Z,94569.33
2018-08-25T01:14:52.535Z,94579.19
2018-08-25T01:17:21.346Z,94580.25
2018-08-25T01:19:50.125Z,94578.41
2018-08-25T01:22:18.902Z,94576.52
2018-08-25T01:24:47.820Z,94581.60
2018-08-25T01:27:16.606Z,94580.27
2018-08-25T01:29:45.423Z,94585.58
2018-08-25T01:32:14.228Z,94581.34
2018-08-25T01:34:43.038Z,94584.80
2018-08-25T01:37:11.786Z,94585.88
2018-08-25T01:39:40.523Z,94589.33
2018-08-25T01:42:09.290Z,94593.59
2018-08-25T01:44:38.035Z,94590.13
2018-08-25T01:47:07.228Z,94583.48
2018-08-25T01:49:35.990Z,94585.09
2018-08-25T01:52:04.752Z,94583.20
2018-08-25T01:54:33.548Z,94578.40
2018-08-25T01:57:02.380Z,94584.80
2018-08-25T01:59:31.207Z,94581.02
2018-08-25T02:01:59.943Z,94578.38
2018-08-25T02:04:32.026Z,94584.22
2018-08-25T02:07:00.842Z,94581.27
2018-08-25T02:09:29.625Z,94584.46
2018-08-25T02:11:58.495Z,94587.66
2018-08-25T02:14:27.737Z,94580.97
2018-08-25T02:16:56.621Z,94589.75
2018-08-25T02:19:25.385Z,94592.42
2018-08-25T02:21:54.138Z,94586.55
2018-08-25T02:24:22.921Z,94585.77
2018-08-25T02:26:51.704Z,94589.22
2018-08-25T02:29:20.487Z,94588.40
2018-08-25T02:31:49.280Z,94584.91
2018-08-25T02:34:18.258Z,94589.97
2018-08-25T02:36:47.033Z,94597.41
2018-08-25T02:39:15.854Z,94597.13
2018-08-25T02:41:44.869Z,94601.88
2018-08-25T02:44:13.669Z,94596.58
2018-08-25T02:46:42.460Z,94599.73
2018-08-25T02:49:11.250Z,94599.19
2018-08-25T02:51:40.073Z,94605.02
2018-08-25T02:54:08.876Z,94607.64
2018-08-25T02:56:37.651Z,94607.84
2018-08-25T02:59:06.468Z,94603.86
2018-08-25T03:01:35.312Z,94604.94
2018-08-25T03:04:04.081Z,94602.83
2018-08-25T03:06:32.848Z,94604.65
2018-08-25T03:09:01.664Z,94598.50
2018-08-25T03:11:30.440Z,94598.45
2018-08-25T03:13:59.199Z,94605.63
2018-08-25T03:16:28.027Z,94600.55
2018-08-25T03:18:56.820Z,94603.78
2018-08-25T03:21:25.598Z,94599.24
2018-08-25T03:23:54.678Z,94605.09
2018-08-25T03:26:23.418Z,94604.09
2018-08-25T03:28:52.186Z,94611.01
2018-08-25T03:31:20.966Z,94610.20
2018-08-25T03:33:49.759Z,94605.16
2018-08-25T03:36:18.489Z,94608.34
2018-08-25T03:38:47.252Z,94610.50
2018-08-25T03:41:16.052Z,94608.34
2018-08-25T03:43:44.832Z,94608.04
2018-08-25T03:46:13.656Z,94608.02
2018-08-25T03:48:42.482Z,94608.81
2018-08-25T03:51:11.255Z,94610.42
2018-08-25T03:53:40.009Z,94611.48
2018-08-25T03:56:08.944Z,94610.40
2018-08-25T03:58:37.773Z,94612.80
2018-08-25T04:01:06.587Z,94610.69
2018-08-25T04:03:35.378Z,94610.73
2018-08-25T04:06:04.176Z,94614.78
2018-08-25T04:08:33.008Z,94618.51
2018-08-25T04:11:01.813Z,94621.71
2018-08-25T04:13:30.599Z,94621.71
2018-08-25T04:15:59.579Z,94629.20
2018-08-25T04:18:28.340Z,94627.47
2018-08-25T04:20:57.131Z,94625.20
2018-08-25T04:23:25.922Z,94618.63
2018-08-25T04:25:54.673Z,94621.83
2018-08-25T04:28:23.624Z,94623.97
2018-08-25T04:30:52.542Z,94624.14
2018-08-25T04:33:21.528Z,94622.39
2018-08-25T04:35:50.490Z,94621.95
2018-08-25T04:38:19.356Z,94622.38
2018-08-25T04:40:48.184Z,94621.67
2018-08-25T04:43:16.981Z,94626.22
2018-08-25T04:45:45.775Z,94629.94
2018-08-25T04:48:14.583Z,94624.20
2018-08-25T04:50:43.395Z,94627.49
2018-08-25T04:53:12.187Z,94629.70
2018-08-25T04:55:40.998Z,94629.70
2018-08-25T04:58:09.786Z,94628.30
2018-08-25T05:00:38.574Z,94619.17
2018-08-25T05:03:07.342Z,94617.01
2018-08-25T05:05:36.126Z,94622.66
2018-08-25T05:08:05.434Z,94622.84
2018-08-25T05:10:34.222Z,94618.64
2018-08-25T05:13:03.142Z,94623.61
2018-08-25T05:15:31.914Z,94623.17
2018-08-25T05:18:00.746Z,94623.73
2018-08-25T05:20:29.559Z,94625.91
2018-08-25T05:22:58.572Z,94626.40
2018-08-25T05:25:27.356Z,94623.44
2018-08-25T05:27:56.148Z,94627.98
2018-08-25T05:30:25.951Z,94627.20
2018-08-25T05:32:54.846Z,94621.59
2018-08-25T05:35:23.694Z,94630.62
2018-08-25T05:37:52.518Z,94633.23
2018-08-25T05:40:21.276Z,94628.59
2018-08-25T05:42:50.113Z,94625.04
2018-08-25T05:45:18.859Z,94624.78
2018-08-25T05:47:47.652Z,94621.97
2018-08-25T05:50:16.955Z,94623.20
2018-08-25T05:52:45.784Z,94620.63
2018-08-25T05:55:14.601Z,94624.40
2018-08-25T05:57:43.454Z,94624.02
2018-08-25T06:00:13.188Z,94620.87
2018-08-25T06:02:42.000Z,94630.78
2018-08-25T06:05:12.088Z,94631.52
2018-08-25T06:07:40.940Z,94636.31
2018-08-25T06:10:09.799Z,94634.47
2018-08-25T06:12:38.600Z,94638.12
2018-08-25T06:15:07.409Z,94630.81
2018-08-25T06:17:36.338Z,94633.14
2018-08-25T06:20:05.488Z,94627.77
2018-08-25T06:22:34.294Z,94633.40
2018-08-25T06:25:03.115Z,94630.81
2018-08-25T06:27:31.936Z,94639.94
2018-08-25T06:30:00.776Z,94638.97
2018-08-25T06:32:29.768Z,94627.87
2018-08-25T06:34:58.551Z,94623.42
2018-08-25T06:37:27.345Z,94622.52
2018-08-25T06:39:56.142Z,94620.01
2018-08-25T06:42:24.996Z,94622.78
2018-08-25T06:44:53.916Z,94627.59
2018-08-25T06:47:22.757Z,94625.73
2018-08-25T06:49:51.551Z,94626.25
2018-08-25T06:52:20.360Z,94619.04
2018-08-25T06:54:49.143Z,94617.49
2018-08-25T06:57:18.027Z,94624.94
2018-08-25T06:59:47.219Z,94621.52
2018-08-25T07:02:16.034Z,94620.95
2018-08-25T07:04:44.876Z,94625.34
2018-08-25T07:07:13.663Z,94618.44
2018-08-25T07:09:42.442Z,94617.98
2018-08-25T07:12:11.243Z,94619.84
2018-08-25T07:14:40.031Z,94620.17
2018-08-25T07:17:09.225Z,94614.50
2018-08-25T07:19:38.008Z,94613.22
2018-08-25T07:22:06.843Z,94615.72
2018-08-25T07:24:35.680Z,94616.03
2018-08-25T07:27:04.585Z,94615.11
2018-08-25T07:29:33.344Z,94617.95
2018-08-25T07:32:02.155Z,94617.86
2018-08-25T07:34:31.141Z,94614.59
2018-08-25T07:36:59.982Z,94621.20
2018-08-25T07:39:28.819Z,94615.69
2018-08-25T07:41:57.607Z,94614.50
2018-08-25T07:44:26.444Z,94614.09
2018-08-25T07:46:55.320Z,94614.91
2018-08-25T07:49:24.139Z,94612.29
2018-08-25T07:51:53.091Z,94609.93
2018-08-25T07:54:21.884Z,94612.55
2018-08-25T07:56:50.820Z,94611.49
2018-08-25T07:59:19.726Z,94616.03
2018-08-25T08:01:48.726Z,94613.84
2018-08-25T08:04:17.536Z,94609.10
2018-08-25T08:06:46.330Z,94612.16
2018-08-25T08:09:15.229Z,94608.47
2018-08-25T08:11:44.052Z,94609.02
2018-08-25T08:14:13.042Z,94606.55
2018-08-25T08:16:41.842Z,94612.17
2018-08-25T08:19:10.603Z,94603.61
2018-08-25T08:21:39.408Z,94608.28
2018-08-25T08:24:08.207Z,94603.34
2018-08-25T08:26:36.990Z,94602.34
2018-08-25T08:29:05.786Z,94602.69
2018-08-25T08:31:34.579Z,94596.97
2018-08-25T08:34:03.400Z,94609.41
2018-08-25T08:36:32.200Z,94598.06
2018-08-25T08:39:01.073Z,94602.27
2018-08-25T08:41:29.918Z,94601.05
2018-08-25T08:43:58.679Z,94602.27
2018-08-25T08:46:32.557Z,94604.36
2018-08-25T08:49:01.371Z,94601.84
2018-08-25T08:51:30.111Z,94599.69
2018-08-25T08:53:58.920Z,94593.09
2018-08-25T08:56:27.754Z,94592.31
2018-08-25T08:58:56.536Z,94588.55
2018-08-25T09:01:25.363Z,94587.63
2018-08-25T09:03:54.176Z,94582.98
2018-08-25T09:06:23.094Z,94576.63
2018-08-25T09:08:52.203Z,94576.32
2018-08-25T09:11:21.652Z,94567.75
2018-08-25T09:13:51.137Z,94570.14
2018-08-25T09:16:20.452Z,94570.23
2018-08-25T09:18:49.420Z,94562.43
2018-08-25T09:21:18.627Z,94562.27
2018-08-25T09:23:47.538Z,94556.77
2018-08-25T09:26:16.310Z,94547.89
2018-08-25T09:28:45.131Z,94548.19
2018-08-25T09:31:14.301Z,94546.82
2018-08-25T09:33:43.130Z,94544.62
2018-08-25T09:36:11.936Z,94537.64
2018-08-25T09:38:40.957Z,94539.45
2018-08-25T09:41:09.804Z,94536.87
2018-08-25T09:43:38.848Z,94532.75
2018-08-25T09:46:07.665Z,94533.03
2018-08-25T09:48:36.465Z,94539.02
2018-08-25T09:51:05.664Z,94527.06
2018-08-25T09:53:34.922Z,94526.60
2018-08-25T09:56:03.930Z,94525.25
2018-08-25T09:58:32.718Z,94525.13
2018-08-25T10:01:06.121Z,94518.98
2018-08-25T10:03:35.830Z,94512.34
2018-08-25T10:06:04.730Z,94508.79
2018-08-25T10:08:33.543Z,94505.23
2018-08-25T10:11:02.477Z,94500.28
2018-08-25T10:13:31.873Z,94498.23
2018-08-25T10:16:00.679Z,94500.69
2018-08-25T10:18:29.527Z,94496.10
2018-08-25T10:20:58.322Z,94492.16
2018-08-25T10:23:27.184Z,94491.91
2018-08-25T10:25:56.175Z,94488.50
2018-08-25T10:28:25.069Z,94488.66
2018-08-25T10:30:54.921Z,94482.37
2018-08-25T10:33:23.748Z,94478.44
2018-08-25T10:35:52.566Z,94474.84
2018-08-25T10:38:21.532Z,94476.91
2018-08-25T10:40:50.325Z,94477.47
2018-08-25T10:43:19.183Z,94472.08
2018-08-25T10:45:48.043Z,94461.61
2018-08-25T10:48:16.930Z,94458.22
2018-08-25T10:50:45.751Z,94458.45
2018-08-25T10:53:14.587Z,94461.53
2018-08-25T10:55:43.403Z,94456.47
2018-08-25T10:58:12.227Z,94451.31
2018-08-25T11:00:41.288Z,94455.68
2018-08-25T11:03:10.136Z,94451.36
2018-08-25T11:05:39.007Z,94453.23
2018-08-25T11:08:08.185Z,94453.06
2018-08-25T11:10:36.984Z,94456.34
2018-08-25T11:13:05.829Z,94458.66
2018-08-25T11:15:34.699Z,94451.63
2018-08-25T11:18:03.528Z,94447.10
2018-08-25T11:20:32.395Z,94449.48
2018-08-25T11:23:01.228Z,94439.51
2018-08-25T11:25:30.142Z,94442.37
2018-08-25T11:27:58.954Z,94445.86
2018-08-25T11:30:27.903Z,94445.63
2018-08-25T11:32:56.747Z,94440.35
2018-08-25T11:35:25.554Z,94441.19
2018-08-25T11:37:54.479Z,94446.75
2018-08-25T11:40:23.387Z,94443.53
2018-08-25T11:42:52.208Z,94441.27
2018-08-25T11:45:21.101Z,94436.19
2018-08-25T11:47:49.917Z,94438.88
2018-08-25T11:50:18.743Z,94430.67
2018-08-25T11:52:47.519Z,94429.05
2018-08-25T11:55:16.327Z,94423.69
2018-08-25T11:57:45.163Z,94419.48
2018-08-25T12:00:14.029Z,94419.90
2018-08-25T12:02:42.893Z,94418.56
2018-08-25T12:05:11.700Z,94411.42
2018-08-25T12:07:40.567Z,94411.75
2018-08-25T12:10:09.506Z,94411.60
2018-08-25T12:12:38.311Z,94418.73
2018-08-25T12:15:08.319Z,94415.09
2018-08-25T12:17:37.622Z,94410.48
2018-08-25T12:20:06.665Z,94412.95
2018-08-25T12:22:35.475Z,94408.13
2018-08-25T12:25:04.334Z,94408.05
2018-08-25T12:27:33.214Z,94404.21
2018-08-25T12:30:02.075Z,94401.45
2018-08-25T12:32:31.139Z,94395.09
2018-08-25T12:34:59.987Z,94395.74
2018-08-25T12:37:28.801Z,94388.75
2018-08-25T12:39:57.650Z,94390.97
2018-08-25T12:42:26.900Z,94392.08
2018-08-25T12:44:55.704Z,94393.28
2018-08-25T12:47:25.157Z,94389.94
2018-08-25T12:49:56.014Z,94384.71
2018-08-25T12:52:24.869Z,94390.89
2018-08-25T12:54:53.670Z,94390.44
2018-08-25T12:57:23.129Z,94384.33
2018-08-25T12:59:51.980Z,94378.52
2018-08-25T13:02:20.819Z,94375.48
2018-08-25T13:04:49.680Z,94362.02
2018-08-25T13:07:18.526Z,94365.70
2018-08-25T13:09:47.506Z,94360.31
2018-08-25T13:12:16.343Z,94352.47
2018-08-25T13:14:45.251Z,94347.08
2018-08-25T13:17:14.342Z,94355.66
2018-08-25T13:19:43.166Z,94346.84
2018-08-25T13:22:12.172Z,94344.68
2018-08-25T13:24:41.030Z,94348.47
2018-08-25T13:27:09.963Z,94346.89
2018-08-25T13:29:38.763Z,94351.00
2018-08-25T13:32:07.590Z,94346.65
2018-08-25T13:34:36.490Z,94352.91
2018-08-25T13:37:05.272Z,94344.34
2018-08-25T13:39:34.292Z,94345.62
2018-08-25T13:42:03.127Z,94344.80
2018-08-25T13:44:31.928Z,94350.50
2018-08-25T13:47:01.012Z,94354.67
2018-08-25T13:49:29.946Z,94347.57
2018-08-25T13:51:58.807Z,94337.39
2018-08-25T13:54:27.713Z,94340.81
2018-08-25T13:56:56.539Z,94340.64
2018-08-25T13:59:25.381Z,94344.91
2018-08-25T14:01:54.205Z,94343.56
2018-08-25T14:04:23.075Z,94344.15
2018-08-25T14:06:51.896Z,94335.50
2018-08-25T14:09:20.696Z,94351.61
2018-08-25T14:11:49.452Z,94351.64
2018-08-25T14:14:18.285Z,94365.83
2018-08-25T14:16:47.367Z,94371.59
2018-08-25T14:19:16.215Z,94372.59
2018-08-25T14:21:45.019Z,94359.05
2018-08-25T14:24:14.283Z,94361.13
2018-08-25T14:26:43.174Z,94359.30
2018-08-25T14:29:12.131Z,94352.13
2018-08-25T14:31:41.049Z,94350.81
2018-08-25T14:34:09.883Z,94354.92
2018-08-25T14:36:39.729Z,94347.94
2018-08-25T14:39:10.549Z,94343.89
2018-08-25T14:41:39.418Z,94342.31
2018-08-25T14:44:08.358Z,94336.13
2018-08-25T14:46:38.372Z,94334.60
2018-08-25T14:49:07.577Z,94331.83
2018-08-25T14:51:36.418Z,94338.57
2018-08-25T14:54:05.216Z,94342.14
2018-08-25T14:56:34.047Z,94345.80
2018-08-25T14:59:02.870Z,94339.14
2018-08-25T15:01:32.166Z,94335.39
2018-08-25T15:04:01.108Z,94340.59
2018-08-25T15:06:29.944Z,94343.24
2018-08-25T15:08:58.893Z,94336.27
2018-08-25T15:11:27.681Z,94335.58
2018-08-25T15:13:56.499Z,94336.14
2018-08-25T15:16:25.340Z,94330.00
2018-08-25T15:18:54.160Z,94335.77
2018-08-25T15:21:23.264Z,94335.05
2018-08-25T15:23:52.075Z,94336.80
2018-08-25T15:26:21.011Z,94324.87
2018-08-25T15:28:49.819Z,94319.75
2018-08-25T15:34:00.358Z,94326.62
2018-08-25T15:36:29.162Z,94335.70
2018-08-25T15:38:57.986Z,94338.16
2018-08-25T15:41:26.906Z,94345.47
2018-08-25T15:43:55.699Z,94356.08
2018-08-25T15:46:24.620Z,94362.61
2018-08-25T15:48:53.888Z,94352.47
2018-08-25T15:51:22.667Z,94366.23
2018-08-25T15:53:51.507Z,94360.44
2018-08-25T15:56:20.325Z,94361.58
2018-08-25T15:58:49.124Z,94365.94
2018-08-25T16:01:18.006Z,94355.41
2018-08-25T16:03:46.876Z,94356.90
2018-08-25T16:06:15.840Z,94360.67
2018-08-25T16:08:44.794Z,94350.06
2018-08-25T16:11:13.674Z,94346.33
2018-08-25T16:13:43.499Z,94352.73
2018-08-25T16:16:12.686Z,94351.45
2018-08-25T16:18:41.511Z,94347.33
2018-08-25T16:21:10.394Z,94358.22
2018-08-25T16:23:39.195Z,94351.00
2018-08-25T16:26:08.003Z,94361.87
2018-08-25T16:28:36.874Z,94363.30
2018-08-25T16:31:05.670Z,94369.23
2018-08-25T16:33:34.578Z,94374.38
2018-08-25T16:36:03.590Z,94375.14
2018-08-25T16:38:32.403Z,94375.17
2018-08-25T16:41:01.423Z,94377.71
2018-08-25T16:43:30.326Z,94382.60
2018-08-25T16:45:59.149Z,94382.55
2018-08-25T16:48:28.002Z,94386.05
2018-08-25T16:50:56.814Z,94386.27
2018-08-25T16:53:25.614Z,94388.12
2018-08-25T16:55:54.571Z,94381.92
2018-08-25T16:58:23.567Z,94386.39
2018-08-25T17:00:52.495Z,94386.89
2018-08-25T17:03:21.338Z,94387.12
2018-08-25T17:05:50.130Z,94383.83
2018-08-25T17:08:18.976Z,94382.92
2018-08-25T17:10:49.436Z,94389.44
2018-08-25T17:13:18.278Z,94386.39
2018-08-25T17:15:47.144Z,94395.14
2018-08-25T17:18:15.985Z,94393.72
2018-08-25T17:20:44.821Z,94398.27
2018-08-25T17:23:13.999Z,94399.86
2018-08-25T17:25:42.807Z,94400.26
2018-08-25T17:28:11.613Z,94408.06
2018-08-25T17:30:41.084Z,94410.00
2018-08-25T17:33:10.209Z,94415.13
2018-08-25T17:35:39.271Z,94416.76
2018-08-25T17:38:08.199Z,94414.96
2018-08-25T17:40:37.019Z,94413.53
2018-08-25T17:43:06.230Z,94408.63
2018-08-25T17:45:35.017Z,94401.53
2018-08-25T17:48:03.830Z,94405.72
2018-08-25T17:50:32.685Z,94409.23
2018-08-25T17:53:01.473Z,94409.10
2018-08-25T17:55:30.298Z,94402.75
2018-08-25T17:57:59.110Z,94402.90
2018-08-25T18:00:27.966Z,94409.54
2018-08-25T18:02:56.791Z,94415.77
2018-08-25T18:05:25.657Z,94412.16
2018-08-25T18:07:54.544Z,94419.76
2018-08-25T18:10:23.354Z,94418.16
2018-08-25T18:12:52.214Z,94419.00
2018-08-25T18:15:21.034Z,94416.42
2018-08-25T18:17:49.862Z,94415.41
2018-08-25T18:20:18.669Z,94419.02
2018-08-25T18:22:49.145Z,94416.88
2018-08-25T18:25:17.992Z,94419.95
2018-08-25T18:27:46.797Z,94416.11
2018-08-25T18:30:15.742Z,94416.20
2018-08-25T18:32:44.681Z,94416.02
2018-08-25T18:35:13.595Z,94415.09
2018-08-25T18:37:42.393Z,94415.72
2018-08-25T18:40:11.171Z,94411.80
2018-08-25T18:42:40.041Z,94416.22
2018-08-25T18:45:08.853Z,94415.73
2018-08-25T18:47:37.629Z,94420.06
2018-08-25T18:50:07.247Z,94416.39
2018-08-25T18:52:36.038Z,94413.78
2018-08-25T18:55:04.949Z,94417.05
2018-08-25T18:57:33.944Z,94420.27
2018-08-25T19:00:02.778Z,94419.55
2018-08-25T19:02:31.918Z,94421.43
2018-08-25T19:05:00.755Z,94427.61
2018-08-25T19:07:29.601Z,94433.24
2018-08-25T19:09:58.479Z,94425.55
2018-08-25T19:12:27.312Z,94430.92
2018-08-25T19:14:56.142Z,94428.23
2018-08-25T19:17:25.101Z,94428.77
2018-08-25T19:19:53.949Z,94429.84
2018-08-25T19:22:22.722Z,94437.36
2018-08-25T19:24:51.610Z,94434.17
2018-08-25T19:27:20.491Z,94435.87
2018-08-25T19:29:49.308Z,94441.27
2018-08-25T19:32:18.156Z,94443.47
2018-08-25T19:34:47.037Z,94445.91
2018-08-25T19:37:15.875Z,94444.86
2018-08-25T19:39:44.670Z,94450.28
2018-08-25T19:42:13.504Z,94447.91
2018-08-25T19:44:42.366Z,94446.57
2018-08-25T19:47:11.176Z,94451.98
2018-08-25T19:49:40.146Z,94445.33
2018-08-25T19:52:09.311Z,94459.23
2018-08-25T19:54:38.076Z,94458.23
2018-08-25T19:57:06.991Z,94454.25
2018-08-25T19:59:35.809Z,94460.19
2018-08-25T20:02:04.637Z,94454.84
2018-08-25T20:04:33.560Z,94455.87
2018-08-25T20:07:02.453Z,94459.93
2018-08-25T20:09:31.335Z,94458.44
2018-08-25T20:12:00.334Z,94460.73
2018-08-25T20:14:29.134Z,94460.55
2018-08-25T20:16:58.033Z,94464.84
2018-08-25T20:19:26.872Z,94461.14
2018-08-25T20:21:55.672Z,94460.87
2018-08-25T20:24:24.484Z,94458.22
2018-08-25T20:26:53.339Z,94455.81
2018-08-25T20:29:22.166Z,94461.69
2018-08-25T20:31:51.076Z,94465.16
2018-08-25T20:34:19.842Z,94462.22
2018-08-25T20:36:48.776Z,94464.64
2018-08-25T20:39:17.634Z,94460.95
2018-08-25T20:41:46.466Z,94460.37
2018-08-25T20:44:15.312Z,94467.06
2018-08-25T20:46:44.110Z,94470.07
2018-08-25T20:49:12.913Z,94460.05
2018-08-25T20:51:41.744Z,94459.53
2018-08-25T20:54:10.532Z,94457.42
2018-08-25T20:56:39.350Z,94452.89
2018-08-25T20:59:08.182Z,94458.81
2018-08-25T21:01:37.023Z,94456.90
2018-08-25T21:04:05.841Z,94455.56
2018-08-25T21:06:34.697Z,94459.08
2018-08-25T21:09:04.969Z,94455.56
2018-08-25T21:11:34.035Z,94455.14
2018-08-25T21:14:02.875Z,94458.03
2018-08-25T21:16:31.748Z,94450.27
2018-08-25T21:19:00.535Z,94458.28
2018-08-25T21:21:29.441Z,94453.75
2018-08-25T21:23:58.318Z,94447.41
2018-08-25T21:26:27.151Z,94454.89
2018-08-25T21:28:55.934Z,94450.66
2018-08-25T21:31:24.816Z,94451.48
2018-08-25T21:33:53.685Z,94448.31
2018-08-25T21:36:22.551Z,94447.52
2018-08-25T21:38:51.378Z,94447.56
2018-08-25T21:41:20.186Z,94447.58
2018-08-25T21:43:49.070Z,94451.84
2018-08-25T21:46:17.898Z,94456.12
2018-08-25T21:48:46.694Z,94448.65
2018-08-25T21:51:15.479Z,94452.42
2018-08-25T21:53:44.254Z,94455.62
2018-08-25T21:56:13.033Z,94457.77
2018-08-25T21:58:41.880Z,94449.02
2018-08-25T22:01:10.834Z,94450.88
2018-08-25T22:03:39.769Z,94446.36
2018-08-25T22:06:08.619Z,94451.16
2018-08-25T22:08:37.441Z,94449.55
2018-08-25T22:11:06.305Z,94448.26
2018-08-25T22:13:35.152Z,94448.27
2018-08-25T22:16:03.945Z,94447.23
2018-08-25T22:18:32.735Z,94449.86
2018-08-25T22:21:01.517Z,94447.73
2018-08-25T22:23:30.520Z,94447.73
2018-08-25T22:25:59.319Z,94447.45
2018-08-25T22:28:28.056Z,94442.93
2018-08-25T22:30:57.021Z,94443.19
2018-08-25T22:33:25.803Z,94440.27
2018-08-25T22:35:54.577Z,94433.06
2018-08-25T22:38:23.379Z,94436.22
2018-08-25T22:40:52.215Z,94438.39
2018-08-25T22:43:21.018Z,94434.92
2018-08-25T22:45:49.830Z,94436.26
2018-08-25T22:48:18.692Z,94443.72
2018-08-25T22:50:47.486Z,94438.92
2018-08-25T22:53:16.316Z,94430.44
2018-08-25T22:55:45.451Z,94432.30
2018-08-25T22:58:14.287Z,94435.77
2018-08-25T23:00:43.127Z,94428.34
2018-08-25T23:03:11.958Z,94429.67
2018-08-25T23:05:40.786Z,94431.30
2018-08-25T23:08:09.580Z,94434.50
2018-08-25T23:10:38.539Z,94428.11
2018-08-25T23:13:07.494Z,94429.17
2018-08-25T23:15:36.268Z,94432.11
2018-08-25T23:18:05.169Z,94428.38
2018-08-25T23:20:33.964Z,94424.67
2018-08-25T23:23:03.040Z,94424.17
2018-08-25T23:25:31.822Z,94423.90
2018-08-25T23:28:00.622Z,94419.67
2018-08-25T23:38:03.354Z,94420.77
2018-08-25T23:40:32.146Z,94416.77
2018-08-25T23:45:09.134Z,94416.75
2018-08-25T23:47:37.893Z,94409.03
2018-08-25T23:50:07.101Z,94409.03
2018-08-25T23:52:37.249Z,94410.66
2018-08-25T23:55:07.753Z,94414.36
2018-08-25T23:57:36.559Z,94411.16
